createdAt,value
2023-01-22T00:00:40.268Z,40.90
2023-01-22T00:02:42.871Z,46.20
2023-01-22T00:04:46.810Z,40.03
2023-01-22T00:06:49.383Z,38.90
2023-01-22T00:08:52.406Z,44.53
2023-01-22T00:10:56.621Z,39.22
2023-01-22T00:12:59.254Z,37.80
2023-01-22T00:15:01.825Z,37.30
2023-01-22T00:17:04.582Z,40.90
2023-01-22T00:19:07.269Z,43.25
2023-01-22T00:21:12.465Z,45.33
2023-01-22T00:23:15.213Z,36.75
2023-01-22T00:25:17.923Z,47.58
2023-01-22T00:27:20.487Z,38.60
2023-01-22T00:29:23.027Z,37.83
2023-01-22T00:31:25.938Z,40.08
2023-01-22T00:33:28.707Z,40.47
2023-01-22T00:35:33.993Z,40.15
2023-01-22T00:37:37.958Z,42.28
2023-01-22T00:39:40.529Z,41.38
2023-01-22T00:41:43.729Z,42.97
2023-01-22T00:43:46.823Z,37.55
2023-01-22T00:45:49.348Z,42.85
2023-01-22T00:47:52.036Z,38.75
2023-01-22T00:49:54.901Z,38.95
2023-01-22T00:51:57.515Z,44.50
2023-01-22T00:54:01.448Z,40.28
2023-01-22T00:56:04.201Z,36.67
2023-01-22T00:58:06.802Z,38.72
2023-01-22T01:00:10.852Z,43.47
2023-01-22T01:02:13.480Z,41.45
2023-01-22T01:04:16.242Z,38.85
2023-01-22T01:06:21.163Z,42.65
2023-01-22T01:08:24.617Z,39.03
2023-01-22T01:10:29.584Z,39.28
2023-01-22T01:12:32.237Z,33.88
2023-01-22T01:14:35.007Z,37.72
2023-01-22T01:16:37.609Z,36.10
2023-01-22T01:18:40.392Z,35.97
2023-01-22T01:20:42.914Z,36.90
2023-01-22T01:22:45.475Z,38.17
2023-01-22T01:24:48.067Z,39.55
2023-01-22T01:26:51.933Z,38.88
2023-01-22T01:28:54.726Z,34.97
2023-01-22T01:30:57.306Z,38.97
2023-01-22T01:32:59.986Z,35.95
2023-01-22T01:35:02.581Z,39.42
2023-01-22T01:37:05.178Z,37.90
2023-01-22T01:39:07.771Z,34.28
2023-01-22T01:41:13.017Z,38.72
2023-01-22T01:43:17.993Z,39.00
2023-01-22T01:45:27.124Z,39.88
2023-01-22T01:47:35.368Z,36.45
2023-01-22T01:49:49.713Z,36.00
2023-01-22T01:51:55.409Z,40.15
2023-01-22T01:54:00.495Z,41.63
2023-01-22T01:56:07.943Z,37.30
2023-01-22T01:58:14.600Z,41.38
2023-01-22T02:00:19.877Z,39.80
2023-01-22T02:02:23.314Z,37.72
2023-01-22T02:04:27.861Z,37.85
2023-01-22T02:06:30.528Z,36.10
2023-01-22T02:08:33.625Z,39.33
2023-01-22T02:10:37.123Z,40.83
2023-01-22T02:12:39.718Z,38.97
2023-01-22T02:14:45.863Z,41.08
2023-01-22T02:16:49.744Z,39.33
2023-01-22T02:18:52.492Z,38.60
2023-01-22T02:20:57.595Z,38.80
2023-01-22T02:23:00.111Z,35.97
2023-01-22T02:25:02.752Z,38.75
2023-01-22T02:27:05.397Z,37.65
2023-01-22T02:29:09.612Z,38.95
2023-01-22T02:31:12.331Z,37.33
2023-01-22T02:33:15.370Z,40.25
2023-01-22T02:35:18.173Z,41.28
2023-01-22T02:37:22.390Z,36.03
2023-01-22T02:39:24.986Z,35.17
2023-01-22T02:41:28.651Z,32.70
2023-01-22T02:43:31.201Z,38.30
2023-01-22T02:45:33.754Z,39.22
2023-01-22T02:47:36.501Z,38.05
2023-01-22T02:49:39.019Z,38.78
2023-01-22T02:51:41.634Z,33.97
2023-01-22T02:53:45.549Z,38.58
2023-01-22T02:55:49.057Z,35.17
2023-01-22T02:57:51.666Z,36.72
2023-01-22T02:59:54.215Z,35.53
2023-01-22T03:01:57.455Z,36.20
2023-01-22T03:04:01.899Z,36.92
2023-01-22T03:06:04.807Z,32.65
2023-01-22T03:08:07.624Z,36.20
2023-01-22T03:10:14.357Z,39.50
2023-01-22T03:12:16.920Z,33.95
2023-01-22T03:14:36.927Z,34.90
2023-01-22T03:16:57.020Z,37.42
2023-01-22T03:19:18.036Z,31.80
2023-01-22T03:21:20.776Z,34.23
2023-01-22T03:23:27.602Z,32.67
2023-01-22T03:25:31.510Z,31.60
2023-01-22T03:27:34.069Z,31.05
2023-01-22T03:29:38.286Z,33.17
2023-01-22T03:31:41.061Z,32.00
2023-01-22T03:33:44.129Z,29.42
2023-01-22T03:35:46.703Z,31.67
2023-01-22T03:37:49.539Z,30.90
2023-01-22T03:39:52.095Z,33.13
2023-01-22T03:41:55.994Z,30.70
2023-01-22T03:44:01.322Z,33.83
2023-01-22T03:46:05.701Z,28.67
2023-01-22T03:48:08.314Z,31.55
2023-01-22T03:50:11.580Z,30.48
2023-01-22T03:52:14.157Z,31.52
2023-01-22T03:54:17.776Z,32.45
2023-01-22T03:56:22.725Z,34.45
2023-01-22T03:58:26.856Z,30.00
2023-01-22T04:00:29.773Z,35.38
2023-01-22T04:02:32.348Z,34.92
2023-01-22T04:04:34.945Z,32.58
2023-01-22T04:06:37.518Z,33.15
2023-01-22T04:08:41.755Z,32.13
2023-01-22T04:10:44.512Z,34.15
2023-01-22T04:12:47.087Z,34.55
2023-01-22T04:14:51.020Z,32.20
2023-01-22T04:16:53.626Z,33.22
2023-01-22T04:18:56.242Z,33.13
2023-01-22T04:20:59.152Z,33.40
2023-01-22T04:23:01.837Z,36.03
2023-01-22T04:25:04.698Z,37.03
2023-01-22T04:27:07.244Z,34.58
2023-01-22T04:29:09.990Z,34.38
2023-01-22T04:31:13.956Z,30.85
2023-01-22T04:33:16.603Z,32.92
2023-01-22T04:35:19.557Z,36.50
2023-01-22T04:37:22.112Z,35.25
2023-01-22T04:39:24.698Z,35.47
2023-01-22T04:41:27.261Z,36.95
2023-01-22T04:43:29.891Z,36.30
2023-01-22T04:45:32.578Z,32.78
2023-01-22T04:47:40.975Z,35.90
2023-01-22T04:49:43.518Z,35.72
2023-01-22T04:51:46.118Z,35.50
2023-01-22T04:53:48.670Z,37.53
2023-01-22T04:55:51.206Z,35.70
2023-01-22T04:57:55.299Z,38.78
2023-01-22T04:59:57.873Z,35.92
2023-01-22T05:02:00.453Z,33.05
2023-01-22T05:04:04.529Z,35.85
2023-01-22T05:06:07.672Z,39.70
2023-01-22T05:08:10.245Z,36.80
2023-01-22T05:10:12.889Z,38.58
2023-01-22T05:12:15.510Z,42.20
2023-01-22T05:14:18.088Z,39.85
2023-01-22T05:16:20.938Z,40.95
2023-01-22T05:18:23.588Z,45.80
2023-01-22T05:20:27.840Z,38.95
2023-01-22T05:22:30.435Z,44.58
2023-01-22T05:24:35.008Z,40.10
2023-01-22T05:26:37.670Z,41.90
2023-01-22T05:28:40.248Z,44.88
2023-01-22T05:30:42.921Z,41.40
2023-01-22T05:32:45.539Z,43.20
2023-01-22T05:34:48.099Z,44.70
2023-01-22T05:36:52.987Z,41.63
2023-01-22T05:38:55.555Z,40.38
2023-01-22T05:40:58.247Z,41.70
2023-01-22T05:43:03.555Z,40.40
2023-01-22T05:45:07.325Z,39.65
2023-01-22T05:47:10.860Z,50.33
2023-01-22T05:49:13.483Z,42.70
2023-01-22T05:51:16.098Z,37.25
2023-01-22T05:53:20.092Z,45.40
2023-01-22T05:55:22.958Z,42.45
2023-01-22T05:57:27.089Z,43.40
2023-01-22T05:59:29.683Z,44.85
2023-01-22T06:01:32.301Z,52.15
2023-01-22T06:03:34.975Z,42.95
2023-01-22T06:05:37.923Z,41.55
2023-01-22T06:07:40.535Z,48.45
2023-01-22T06:09:44.435Z,45.03
2023-01-22T06:11:47.008Z,47.20
2023-01-22T06:13:49.824Z,42.63
2023-01-22T06:15:53.650Z,45.92
2023-01-22T06:18:01.508Z,52.28
2023-01-22T06:20:04.577Z,45.88
2023-01-22T06:22:07.150Z,44.20
2023-01-22T06:24:09.786Z,41.10
2023-01-22T06:26:13.911Z,44.83
2023-01-22T06:28:16.442Z,44.63
2023-01-22T06:30:19.348Z,44.30
2023-01-22T06:32:22.213Z,44.97
2023-01-22T06:34:24.993Z,43.17
2023-01-22T06:36:28.153Z,43.05
2023-01-22T06:38:31.482Z,48.78
2023-01-22T06:40:34.352Z,44.25
2023-01-22T06:42:39.050Z,45.03
2023-01-22T06:44:41.625Z,45.70
2023-01-22T06:46:44.320Z,45.15
2023-01-22T06:48:49.640Z,49.33
2023-01-22T06:50:52.524Z,44.63
2023-01-22T06:52:55.072Z,46.10
2023-01-22T06:54:57.689Z,44.70
2023-01-22T06:57:00.327Z,42.53
2023-01-22T06:59:04.256Z,40.40
2023-01-22T07:01:07.664Z,41.85
2023-01-22T07:03:10.455Z,41.53
2023-01-22T07:05:13.347Z,40.65
2023-01-22T07:07:16.081Z,45.97
2023-01-22T07:09:18.705Z,42.35
2023-01-22T07:11:21.283Z,41.00
2023-01-22T07:13:23.854Z,40.17
2023-01-22T07:15:27.965Z,44.58
2023-01-22T07:17:30.628Z,47.92
2023-01-22T07:19:33.276Z,50.70
2023-01-22T07:21:35.939Z,47.08
2023-01-22T07:23:38.498Z,47.45
2023-01-22T07:25:41.047Z,47.42
2023-01-22T07:27:43.693Z,45.67
2023-01-22T07:29:47.520Z,51.08
2023-01-22T07:31:51.461Z,54.30
2023-01-22T07:33:54.023Z,52.05
2023-01-22T07:35:57.322Z,59.20
2023-01-22T07:38:00.681Z,60.78
2023-01-22T07:40:03.538Z,60.15
2023-01-22T07:42:09.249Z,58.78
2023-01-22T07:44:12.591Z,64.07
2023-01-22T07:46:15.236Z,58.53
2023-01-22T07:48:19.136Z,58.10
2023-01-22T07:50:22.469Z,58.00
2023-01-22T07:52:25.143Z,60.15
2023-01-22T07:54:27.733Z,59.05
2023-01-22T07:56:30.332Z,56.03
2023-01-22T07:58:33.111Z,57.70
2023-01-22T08:00:36.800Z,67.97
2023-01-22T08:02:39.949Z,62.88
2023-01-22T08:04:44.237Z,60.97
2023-01-22T08:06:46.765Z,60.38
2023-01-22T08:08:49.396Z,62.17
2023-01-22T08:10:51.941Z,60.92
2023-01-22T08:12:54.521Z,58.53
2023-01-22T08:14:57.404Z,57.45
2023-01-22T08:17:00.047Z,58.67
2023-01-22T08:19:02.641Z,57.72
2023-01-22T08:21:07.007Z,60.35
2023-01-22T08:23:09.553Z,61.70
2023-01-22T08:25:12.228Z,58.47
2023-01-22T08:27:14.771Z,58.85
2023-01-22T08:29:17.383Z,63.20
2023-01-22T08:31:27.984Z,70.00
2023-01-22T08:33:33.243Z,68.93
2023-01-22T08:35:35.835Z,63.60
2023-01-22T08:37:39.726Z,60.35
2023-01-22T08:39:42.255Z,59.42
2023-01-22T08:41:44.937Z,63.15
2023-01-22T08:43:47.483Z,61.60
2023-01-22T08:45:50.394Z,68.22
2023-01-22T08:47:58.780Z,63.05
2023-01-22T08:50:01.984Z,68.28
2023-01-22T08:52:04.749Z,63.65
2023-01-22T08:54:08.742Z,60.75
2023-01-22T08:56:11.329Z,68.97
2023-01-22T08:58:14.985Z,69.20
2023-01-22T09:00:18.261Z,60.08
2023-01-22T09:02:24.053Z,58.65
2023-01-22T09:04:27.023Z,83.03
2023-01-22T09:06:32.357Z,87.05
2023-01-22T09:08:34.996Z,87.85
2023-01-22T09:10:38.928Z,88.22
2023-01-22T09:12:41.864Z,78.45
2023-01-22T09:14:44.496Z,74.72
2023-01-22T09:16:47.176Z,77.75
2023-01-22T09:18:49.744Z,85.18
2023-01-22T09:20:52.277Z,82.68
2023-01-22T09:22:54.897Z,84.80
2023-01-22T09:24:57.500Z,77.05
2023-01-22T09:27:01.415Z,76.70
2023-01-22T09:29:05.843Z,65.88
2023-01-22T09:31:08.562Z,68.55
2023-01-22T09:33:11.119Z,68.57
2023-01-22T09:35:16.275Z,68.07
2023-01-22T09:37:19.091Z,66.25
2023-01-22T09:39:21.723Z,64.55
2023-01-22T09:41:29.280Z,64.55
2023-01-22T09:43:38.090Z,65.05
2023-01-22T09:45:41.959Z,60.50
2023-01-22T09:47:47.984Z,60.53
2023-01-22T09:49:58.223Z,64.05
2023-01-22T09:52:05.107Z,58.47
2023-01-22T09:54:08.823Z,57.47
2023-01-22T09:56:20.862Z,51.90
2023-01-22T09:58:25.190Z,54.15
2023-01-22T10:00:39.343Z,45.47
2023-01-22T10:02:46.292Z,44.83
2023-01-22T10:04:53.055Z,51.00
2023-01-22T10:06:57.893Z,49.78
2023-01-22T10:09:11.739Z,52.08
2023-01-22T10:11:14.304Z,48.75
2023-01-22T10:13:20.226Z,48.58
2023-01-22T10:15:25.024Z,44.60
2023-01-22T10:17:33.562Z,39.35
2023-01-22T10:19:44.866Z,39.45
2023-01-22T10:21:50.288Z,37.35
2023-01-22T10:23:56.075Z,38.25
2023-01-22T10:26:15.178Z,43.58
2023-01-22T10:28:26.702Z,40.33
2023-01-22T10:30:30.556Z,40.55
2023-01-22T10:32:34.940Z,44.60
2023-01-22T10:34:38.066Z,38.75
2023-01-22T10:36:40.687Z,34.25
2023-01-22T10:38:43.291Z,35.83
2023-01-22T10:40:45.854Z,37.22
2023-01-22T10:42:49.655Z,40.63
2023-01-22T10:44:56.879Z,35.88
2023-01-22T10:47:09.320Z,40.53
2023-01-22T10:49:16.825Z,35.30
2023-01-22T10:51:27.401Z,26.38
2023-01-22T10:53:34.294Z,34.97
2023-01-22T10:55:44.556Z,27.02
2023-01-22T10:57:52.858Z,33.25
2023-01-22T11:00:02.408Z,29.05
2023-01-22T11:02:17.774Z,30.73
2023-01-22T11:04:24.784Z,28.77
2023-01-22T11:06:34.749Z,27.85
2023-01-22T11:08:46.279Z,26.48
2023-01-22T11:10:52.729Z,27.17
2023-01-22T11:12:59.767Z,29.35
2023-01-22T11:15:10.295Z,27.52
2023-01-22T11:17:21.150Z,33.45
2023-01-22T11:19:36.896Z,31.83
2023-01-22T11:21:44.551Z,33.70
2023-01-22T11:23:58.404Z,31.10
2023-01-22T11:26:10.924Z,32.85
2023-01-22T11:28:27.826Z,31.13
2023-01-22T11:30:57.908Z,32.88
2023-01-22T11:33:10.369Z,33.55
2023-01-22T11:35:25.466Z,33.15
2023-01-22T11:37:42.011Z,33.00
2023-01-22T11:40:03.402Z,34.78
2023-01-22T11:42:15.778Z,31.60
2023-01-22T11:44:35.593Z,33.65
2023-01-22T11:46:55.726Z,36.05
2023-01-22T11:49:06.822Z,34.42
2023-01-22T11:51:20.462Z,33.35
2023-01-22T11:53:43.361Z,36.35
2023-01-22T11:56:01.380Z,30.45
2023-01-22T11:58:13.366Z,32.35
2023-01-22T12:00:34.363Z,29.27
2023-01-22T12:03:12.000Z,35.08
2023-01-22T12:05:26.913Z,35.53
2023-01-22T12:07:49.511Z,30.27
2023-01-22T12:10:14.704Z,35.30
2023-01-22T12:12:32.837Z,36.80
2023-01-22T12:14:51.446Z,33.17
2023-01-22T12:17:01.638Z,29.38
2023-01-22T12:19:23.885Z,30.60
2023-01-22T12:21:40.336Z,35.13
2023-01-22T12:23:52.304Z,34.10
2023-01-22T12:28:07.328Z,32.90
2023-01-22T12:30:18.758Z,34.25
2023-01-22T12:32:24.104Z,35.47
2023-01-22T12:34:32.524Z,33.85
2023-01-22T12:36:35.669Z,36.22
2023-01-22T12:38:47.715Z,35.05
2023-01-22T12:41:04.812Z,38.83
2023-01-22T12:43:08.514Z,35.33
2023-01-22T12:45:23.854Z,36.47
2023-01-22T12:47:32.270Z,37.20
2023-01-22T12:49:46.150Z,38.60
2023-01-22T12:51:50.663Z,38.95
2023-01-22T12:53:54.722Z,39.63
2023-01-22T12:56:03.498Z,40.38
2023-01-22T12:58:22.268Z,37.28
2023-01-22T13:00:30.296Z,39.20
2023-01-22T13:02:39.058Z,36.92
2023-01-22T13:04:41.645Z,38.97
2023-01-22T13:06:46.201Z,41.70
2023-01-22T13:08:48.941Z,44.88
2023-01-22T13:10:58.183Z,44.03
2023-01-22T13:13:05.548Z,36.58
2023-01-22T13:15:18.099Z,37.88
2023-01-22T13:17:24.306Z,40.33
2023-01-22T13:19:30.920Z,38.47
2023-01-22T13:21:34.977Z,39.45
2023-01-22T13:23:43.830Z,38.17
2023-01-22T13:25:46.406Z,36.75
2023-01-22T13:27:50.287Z,34.22
2023-01-22T13:29:53.331Z,38.03
2023-01-22T13:31:57.300Z,32.42
2023-01-22T13:34:08.531Z,33.72
2023-01-22T13:36:14.893Z,31.75
2023-01-22T13:38:22.658Z,31.90
2023-01-22T13:40:27.389Z,35.22
2023-01-22T13:42:30.061Z,31.00
2023-01-22T13:44:35.822Z,32.45
2023-01-22T13:46:39.256Z,29.50
2023-01-22T13:48:42.400Z,32.40
2023-01-22T13:50:47.658Z,32.63
2023-01-22T13:52:51.274Z,27.08
2023-01-22T13:55:07.748Z,32.22
2023-01-22T13:57:13.540Z,36.92
2023-01-22T13:59:21.819Z,28.98
2023-01-22T14:01:31.750Z,30.15
2023-01-22T14:03:34.958Z,33.08
2023-01-22T14:05:38.444Z,30.08
2023-01-22T14:07:41.903Z,34.35
2023-01-22T14:09:44.933Z,31.85
2023-01-22T14:11:49.918Z,28.77
2023-01-22T14:13:54.136Z,31.50
2023-01-22T14:15:59.412Z,32.03
2023-01-22T14:18:12.053Z,30.08
2023-01-22T14:20:14.937Z,28.25
2023-01-22T14:22:17.622Z,29.23
2023-01-22T14:24:20.181Z,29.23
2023-01-22T14:26:22.719Z,33.15
2023-01-22T14:28:26.066Z,29.35
2023-01-22T14:30:29.099Z,35.38
2023-01-22T14:32:34.477Z,33.65
2023-01-22T14:34:38.456Z,29.92
2023-01-22T14:36:41.017Z,31.98
2023-01-22T14:38:43.580Z,30.77
2023-01-22T14:40:46.432Z,29.98
2023-01-22T14:42:49.324Z,29.77
2023-01-22T14:44:51.865Z,29.40
2023-01-22T14:46:54.719Z,32.38
2023-01-22T14:48:57.570Z,30.17
2023-01-22T14:51:01.504Z,31.05
2023-01-22T14:53:04.072Z,27.10
2023-01-22T14:55:07.415Z,31.50
2023-01-22T14:57:09.943Z,27.42
2023-01-22T14:59:12.634Z,29.33
2023-01-22T15:01:17.403Z,29.02
2023-01-22T15:03:20.010Z,30.17
2023-01-22T15:05:22.595Z,27.92
2023-01-22T15:07:26.634Z,33.65
2023-01-22T15:09:29.214Z,28.27
2023-01-22T15:11:32.639Z,28.42
2023-01-22T15:13:35.613Z,29.70
2023-01-22T15:15:38.207Z,30.30
2023-01-22T15:17:40.734Z,28.85
2023-01-22T15:19:43.292Z,29.58
2023-01-22T15:21:48.778Z,30.10
2023-01-22T15:23:52.660Z,29.20
2023-01-22T15:25:59.790Z,30.05
2023-01-22T15:28:03.086Z,33.03
2023-01-22T15:30:06.635Z,28.50
2023-01-22T15:32:09.193Z,30.42
2023-01-22T15:34:11.761Z,29.02
2023-01-22T15:36:14.414Z,30.63
2023-01-22T15:38:17.046Z,25.67
2023-01-22T15:40:21.435Z,28.45
2023-01-22T15:42:24.076Z,29.65
2023-01-22T15:44:26.735Z,30.33
2023-01-22T15:46:31.343Z,29.45
2023-01-22T15:48:33.855Z,30.48
2023-01-22T15:50:36.451Z,28.42
2023-01-22T15:52:39.058Z,29.70
2023-01-22T15:54:41.601Z,28.25
2023-01-22T15:56:45.989Z,29.25
2023-01-22T15:58:51.065Z,35.95
2023-01-22T16:00:55.329Z,31.70
2023-01-22T16:02:59.737Z,30.60
2023-01-22T16:05:02.306Z,33.03
2023-01-22T16:07:04.932Z,27.92
2023-01-22T16:09:08.606Z,29.58
2023-01-22T16:11:11.769Z,28.05
2023-01-22T16:13:15.677Z,30.45
2023-01-22T16:15:18.503Z,30.60
2023-01-22T16:17:21.079Z,32.47
2023-01-22T16:19:23.771Z,35.38
2023-01-22T16:21:26.848Z,33.75
2023-01-22T16:23:30.476Z,34.38
2023-01-22T16:25:33.104Z,35.80
2023-01-22T16:27:35.625Z,34.92
2023-01-22T16:29:40.378Z,38.47
2023-01-22T16:31:43.055Z,32.28
2023-01-22T16:33:47.166Z,31.15
2023-01-22T16:35:49.767Z,28.50
2023-01-22T16:37:52.336Z,31.10
2023-01-22T16:39:54.935Z,30.65
2023-01-22T16:41:57.533Z,31.90
2023-01-22T16:44:02.691Z,32.10
2023-01-22T16:46:06.656Z,39.90
2023-01-22T16:48:09.256Z,39.17
2023-01-22T16:50:12.134Z,40.45
2023-01-22T16:52:22.444Z,40.97
2023-01-22T16:54:28.832Z,41.85
2023-01-22T16:56:32.417Z,40.25
2023-01-22T16:58:35.056Z,39.17
2023-01-22T17:00:37.592Z,43.95
2023-01-22T17:02:41.438Z,34.92
2023-01-22T17:04:44.727Z,35.58
2023-01-22T17:06:49.768Z,34.13
2023-01-22T17:08:52.954Z,36.88
2023-01-22T17:10:55.638Z,33.47
2023-01-22T17:12:58.244Z,37.65
2023-01-22T17:15:00.780Z,41.75
2023-01-22T17:17:04.212Z,36.00
2023-01-22T17:19:08.084Z,40.85
2023-01-22T17:21:13.557Z,37.45
2023-01-22T17:23:16.081Z,33.90
2023-01-22T17:25:18.802Z,36.83
2023-01-22T17:27:21.559Z,38.22
2023-01-22T17:29:24.187Z,36.67
2023-01-22T17:31:26.980Z,38.80
2023-01-22T17:33:30.238Z,38.45
2023-01-22T17:35:34.160Z,39.03
2023-01-22T17:37:36.937Z,39.88
2023-01-22T17:39:40.829Z,36.55
2023-01-22T17:41:43.953Z,40.03
2023-01-22T17:43:48.343Z,36.92
2023-01-22T17:45:51.017Z,39.78
2023-01-22T17:47:53.637Z,36.03
2023-01-22T17:49:56.540Z,39.67
2023-01-22T17:52:00.451Z,42.97
2023-01-22T17:54:06.047Z,43.33
2023-01-22T17:56:10.878Z,39.25
2023-01-22T17:58:13.441Z,39.40
2023-01-22T18:00:17.497Z,43.85
2023-01-22T18:02:20.136Z,39.90
2023-01-22T18:04:25.742Z,41.80
2023-01-22T18:06:28.753Z,41.38
2023-01-22T18:08:34.708Z,41.10
2023-01-22T18:10:38.789Z,41.53
2023-01-22T18:12:42.221Z,42.20
2023-01-22T18:14:44.750Z,42.83
2023-01-22T18:16:47.348Z,42.88
2023-01-22T18:18:52.450Z,42.78
2023-01-22T18:20:55.259Z,42.13
2023-01-22T18:22:57.823Z,42.92
2023-01-22T18:25:01.829Z,42.35
2023-01-22T18:27:04.460Z,40.38
2023-01-22T18:29:07.214Z,43.65
2023-01-22T18:31:11.925Z,46.55
2023-01-22T18:33:14.987Z,50.33
2023-01-22T18:35:17.993Z,50.97
2023-01-22T18:37:20.756Z,53.50
2023-01-22T18:39:23.396Z,58.45
2023-01-22T18:41:28.190Z,51.45
2023-01-22T18:43:30.739Z,53.60
2023-01-22T18:45:35.068Z,55.72
2023-01-22T18:47:38.557Z,49.30
2023-01-22T18:49:41.095Z,52.90
2023-01-22T18:51:44.911Z,52.17
2023-01-22T18:53:48.687Z,49.25
2023-01-22T18:55:51.356Z,51.63
2023-01-22T18:57:58.360Z,54.97
2023-01-22T19:00:00.917Z,60.53
2023-01-22T19:02:03.489Z,56.83
2023-01-22T19:04:08.611Z,53.17
2023-01-22T19:06:14.474Z,53.88
2023-01-22T19:08:17.336Z,51.60
2023-01-22T19:10:23.101Z,53.67
2023-01-22T19:12:25.720Z,49.05
2023-01-22T19:14:29.620Z,55.08
2023-01-22T19:16:32.390Z,53.83
2023-01-22T19:18:34.932Z,60.22
2023-01-22T19:20:39.353Z,55.83
2023-01-22T19:22:42.524Z,52.45
2023-01-22T19:24:45.580Z,59.53
2023-01-22T19:26:50.332Z,56.38
2023-01-22T19:28:56.035Z,56.90
2023-01-22T19:31:00.000Z,54.28
2023-01-22T19:33:02.575Z,54.78
2023-01-22T19:35:06.661Z,50.63
2023-01-22T19:37:10.297Z,44.92
2023-01-22T19:39:14.202Z,50.38
2023-01-22T19:41:16.857Z,41.08
2023-01-22T19:43:19.757Z,39.40
2023-01-22T19:45:22.310Z,48.83
2023-01-22T19:47:26.563Z,45.95
2023-01-22T19:49:29.626Z,45.78
2023-01-22T19:51:32.180Z,47.38
2023-01-22T19:53:35.606Z,44.67
2023-01-22T19:55:38.166Z,45.72
2023-01-22T19:57:40.689Z,42.28
2023-01-22T19:59:43.458Z,44.75
2023-01-22T20:01:47.297Z,41.25
2023-01-22T20:03:51.351Z,42.58
2023-01-22T20:05:53.983Z,40.60
2023-01-22T20:07:58.533Z,40.83
2023-01-22T20:10:01.076Z,42.50
2023-01-22T20:12:05.473Z,41.00
2023-01-22T20:14:08.547Z,44.22
2023-01-22T20:16:18.917Z,34.90
2023-01-22T20:18:21.533Z,33.35
2023-01-22T20:20:26.062Z,36.08
2023-01-22T20:22:28.653Z,38.22
2023-01-22T20:24:31.217Z,34.63
2023-01-22T20:26:33.943Z,32.72
2023-01-22T20:28:37.349Z,35.05
2023-01-22T20:30:40.457Z,31.70
2023-01-22T20:32:43.058Z,30.23
2023-01-22T20:34:48.813Z,31.08
2023-01-22T20:36:53.024Z,32.95
2023-01-22T20:38:56.502Z,33.85
2023-01-22T20:41:00.241Z,32.80
2023-01-22T20:43:02.848Z,31.30
2023-01-22T20:45:06.789Z,32.50
2023-01-22T20:47:09.333Z,32.95
2023-01-22T20:49:12.691Z,34.10
2023-01-22T20:51:17.218Z,32.03
2023-01-22T20:53:21.192Z,28.25
2023-01-22T20:55:24.687Z,32.70
2023-01-22T20:57:27.221Z,29.83
2023-01-22T20:59:30.286Z,25.75
2023-01-22T21:01:33.614Z,30.80
2023-01-22T21:03:36.649Z,28.35
2023-01-22T21:05:41.091Z,29.20
2023-01-22T21:07:43.877Z,28.13
2023-01-22T21:09:48.469Z,27.25
2023-01-22T21:11:51.114Z,27.40
2023-01-22T21:13:54.400Z,28.75
2023-01-22T21:15:57.010Z,27.92
2023-01-22T21:17:59.605Z,28.58
2023-01-22T21:20:02.195Z,33.35
2023-01-22T21:22:05.454Z,30.05
2023-01-22T21:24:08.674Z,27.63
2023-01-22T21:26:15.526Z,29.90
2023-01-22T21:28:18.095Z,29.00
2023-01-22T21:30:21.064Z,27.38
2023-01-22T21:32:23.742Z,30.30
2023-01-22T21:34:28.514Z,26.63
2023-01-22T21:36:32.200Z,28.40
2023-01-22T21:38:35.350Z,31.02
2023-01-22T21:40:37.971Z,30.77
2023-01-22T21:42:59.835Z,27.70
2023-01-22T21:45:20.182Z,28.55
2023-01-22T21:47:22.738Z,29.38
2023-01-22T21:49:25.372Z,25.58
2023-01-22T21:51:29.455Z,26.60
2023-01-22T21:53:32.010Z,30.60
2023-01-22T21:55:34.630Z,29.80
2023-01-22T21:57:38.639Z,32.30
2023-01-22T21:59:43.117Z,30.50
2023-01-22T22:01:46.649Z,28.58
2023-01-22T22:03:49.518Z,30.58
2023-01-22T22:06:02.032Z,30.35
2023-01-22T22:08:05.116Z,32.45
2023-01-22T22:10:12.522Z,31.65
2023-01-22T22:12:15.076Z,30.23
2023-01-22T22:14:20.204Z,30.45
2023-01-22T22:16:24.649Z,32.17
2023-01-22T22:18:27.302Z,27.90
2023-01-22T22:20:30.037Z,31.10
2023-01-22T22:22:32.686Z,30.08
2023-01-22T22:24:35.270Z,34.42
2023-01-22T22:26:38.345Z,30.73
2023-01-22T22:28:40.915Z,31.60
2023-01-22T22:30:43.466Z,30.90
2023-01-22T22:32:47.422Z,31.20
2023-01-22T22:34:50.412Z,32.20
2023-01-22T22:36:55.421Z,34.58
2023-01-22T22:38:58.157Z,29.95
2023-01-22T22:41:02.609Z,31.85
2023-01-22T22:43:05.141Z,30.45
2023-01-22T22:45:08.790Z,33.70
2023-01-22T22:47:11.403Z,31.70
2023-01-22T22:49:15.481Z,32.17
2023-01-22T22:51:20.574Z,32.28
2023-01-22T22:53:23.157Z,32.33
2023-01-22T22:55:26.664Z,31.65
2023-01-22T22:57:29.371Z,31.40
2023-01-22T22:59:31.910Z,33.35
2023-01-22T23:01:37.612Z,34.42
2023-01-22T23:03:40.925Z,32.95
2023-01-22T23:05:44.881Z,33.05
2023-01-22T23:07:47.533Z,33.97
2023-01-22T23:09:50.131Z,33.25
2023-01-22T23:11:55.470Z,32.00
2023-01-22T23:14:01.141Z,33.50
2023-01-22T23:16:05.445Z,33.95
2023-01-22T23:18:08.040Z,30.02
2023-01-22T23:20:12.441Z,35.38
2023-01-22T23:22:16.737Z,31.23
2023-01-22T23:24:19.345Z,34.25
2023-01-22T23:26:27.948Z,32.70
2023-01-22T23:28:30.496Z,33.50
2023-01-22T23:30:33.141Z,31.38
2023-01-22T23:32:35.829Z,32.83
2023-01-22T23:34:38.433Z,35.60
2023-01-22T23:36:45.145Z,30.42
2023-01-22T23:38:49.527Z,31.70
2023-01-22T23:40:57.209Z,34.53
2023-01-22T23:42:59.772Z,35.85
2023-01-22T23:45:02.349Z,32.05
2023-01-22T23:47:04.926Z,32.88
2023-01-22T23:49:07.510Z,34.08
2023-01-22T23:51:12.253Z,31.20
2023-01-22T23:53:15.644Z,37.15
2023-01-22T23:55:19.565Z,30.95
2023-01-22T23:57:22.167Z,34.60
2023-01-22T23:59:24.687Z,30.13
